Time;durP1;ratioP1;P1;durP2;ratioP2;P2;SDS_P1;SDS_P2;PMS_P1;PMS_P2;Temp;Humidity;BMP_temperature;BMP_pressure;BME280_temperature;BME280_humidity;BME280_pressure;Samples;Min_cycle;Max_cycle;Signal;HPM_P1;HPM_P2
2021/10/08 00:00:06;;;;;;;18.58;11.20;;;9.50;99.90;;;;;;5067844;28;20500;-46
2021/10/08 00:02:33;;;;;;;21.45;12.93;;;9.60;99.90;;;;;;5063750;28;20229;-47
2021/10/08 00:05:01;;;;;;;15.95;10.35;;;9.50;99.90;;;;;;5059645;28;20235;-52
2021/10/08 00:07:28;;;;;;;17.33;10.25;;;9.50;99.90;;;;;;5062631;28;20250;-46
2021/10/08 00:09:55;;;;;;;13.98;10.38;;;9.50;99.90;;;;;;5054249;28;20518;-45
2021/10/08 00:12:22;;;;;;;15.68;10.63;;;9.30;99.90;;;;;;5070033;28;20239;-47
2021/10/08 00:14:50;;;;;;;15.80;10.93;;;9.30;99.90;;;;;;5080417;28;20208;-50
2021/10/08 00:17:17;;;;;;;14.25;10.75;;;9.30;99.90;;;;;;5062919;28;20411;-46
2021/10/08 00:19:44;;;;;;;20.45;11.68;;;9.30;99.90;;;;;;5078806;28;20200;-49
2021/10/08 00:22:11;;;;;;;19.55;11.27;;;9.20;99.90;;;;;;5069503;28;20252;-48
2021/10/08 00:24:38;;;;;;;14.10;9.52;;;9.10;99.90;;;;;;5077100;28;20195;-48
2021/10/08 00:27:05;;;;;;;15.93;10.30;;;9.10;99.90;;;;;;5074932;28;20200;-50
2021/10/08 00:29:33;;;;;;;16.80;10.27;;;9.10;99.90;;;;;;5077058;28;20204;-53
2021/10/08 00:32:00;;;;;;;14.55;8.90;;;9.10;99.90;;;;;;5076870;28;20268;-48
2021/10/08 00:34:27;;;;;;;15.43;10.40;;;9.20;99.90;;;;;;5078097;28;20206;-48
2021/10/08 00:36:54;;;;;;;14.73;9.52;;;9.10;99.90;;;;;;5068269;28;20203;-43
2021/10/08 00:39:21;;;;;;;16.13;11.38;;;9.20;99.90;;;;;;5077000;28;20204;-46
2021/10/08 00:41:48;;;;;;;13.10;10.43;;;9.20;99.90;;;;;;5063047;28;20239;-48
2021/10/08 00:44:15;;;;;;;18.13;9.95;;;9.20;99.90;;;;;;5064148;28;20268;-47
2021/10/08 00:46:44;;;;;;;12.70;8.25;;;9.20;99.90;;;;;;5075082;28;20250;-48
2021/10/08 00:49:12;;;;;;;13.13;9.88;;;9.10;99.90;;;;;;5071442;28;20263;-43
2021/10/08 00:51:39;;;;;;;17.63;11.00;;;9.00;99.90;;;;;;5055813;28;20204;-50
2021/10/08 00:54:06;;;;;;;14.90;10.10;;;9.00;99.90;;;;;;5064132;28;20225;-46
2021/10/08 00:56:34;;;;;;;14.10;9.85;;;8.90;99.90;;;;;;5066933;28;20207;-53
2021/10/08 00:59:01;;;;;;;12.90;10.20;;;8.80;99.90;;;;;;5072492;28;20230;-48
2021/10/08 01:01:29;;;;;;;14.18;9.70;;;9.00;99.90;;;;;;5068477;28;20228;-47
2021/10/08 01:03:56;;;;;;;14.75;10.93;;;8.90;99.90;;;;;;5069785;28;20691;-44
2021/10/08 01:06:23;;;;;;;17.85;10.30;;;8.90;99.90;;;;;;5075752;28;20467;-46
2021/10/08 01:08:50;;;;;;;20.77;10.35;;;8.90;99.90;;;;;;5072465;28;20233;-48
2021/10/08 01:11:21;;;;;;;13.07;10.48;;;8.80;99.90;;;;;;5072432;28;20524;-52
2021/10/08 01:13:48;;;;;;;13.10;10.20;;;8.70;99.90;;;;;;5067860;28;20296;-43
2021/10/08 01:16:22;;;;;;;14.93;10.25;;;8.60;99.90;;;;;;5077282;28;20199;-45
2021/10/08 01:18:49;;;;;;;15.55;9.73;;;8.70;99.90;;;;;;5081307;28;20240;-46
2021/10/08 01:21:16;;;;;;;17.67;10.77;;;8.60;99.90;;;;;;5070767;28;20517;-49
2021/10/08 01:23:46;;;;;;;15.82;10.63;;;8.70;99.90;;;;;;5073611;28;20214;-47
2021/10/08 01:26:14;;;;;;;15.55;9.02;;;8.90;99.90;;;;;;5067832;28;20223;-47
2021/10/08 01:28:41;;;;;;;13.10;10.20;;;8.70;99.90;;;;;;5078636;28;20240;-46
2021/10/08 01:31:08;;;;;;;18.48;11.45;;;8.60;99.90;;;;;;5079078;28;20210;-46
2021/10/08 01:33:36;;;;;;;16.40;11.02;;;8.70;99.90;;;;;;5075111;28;20219;-52
2021/10/08 01:36:03;;;;;;;13.55;9.23;;;8.60;99.90;;;;;;5080940;28;20502;-45
2021/10/08 01:38:30;;;;;;;16.48;11.80;;;8.60;99.90;;;;;;5070726;28;21516;-48
2021/10/08 01:40:57;;;;;;;13.30;10.05;;;8.40;99.90;;;;;;5071307;28;20419;-52
2021/10/08 01:43:24;;;;;;;18.25;10.80;;;8.60;99.90;;;;;;5064645;28;20596;-52
2021/10/08 01:45:51;;;;;;;16.00;11.07;;;8.50;99.90;;;;;;5078000;28;20498;-47
2021/10/08 01:48:19;;;;;;;11.70;9.38;;;8.40;99.90;;;;;;5071113;28;20200;-53
2021/10/08 01:50:46;;;;;;;18.65;10.52;;;8.30;99.90;;;;;;5071293;28;20249;-46
2021/10/08 01:53:13;;;;;;;15.98;10.00;;;8.30;99.90;;;;;;5077381;28;20272;-51
2021/10/08 01:55:40;;;;;;;18.40;11.45;;;8.50;99.90;;;;;;5072587;28;20226;-47
2021/10/08 01:58:07;;;;;;;10.50;9.40;;;8.60;99.90;;;;;;5077384;28;20530;-44
2021/10/08 02:00:34;;;;;;;12.68;9.32;;;8.40;99.90;;;;;;5079755;28;20237;-49
2021/10/08 02:03:02;;;;;;;14.20;10.18;;;8.30;99.90;;;;;;5078997;28;20230;-49
2021/10/08 02:05:29;;;;;;;17.77;10.38;;;8.20;99.90;;;;;;5074053;28;20202;-51
2021/10/08 02:07:56;;;;;;;19.08;10.68;;;8.20;99.90;;;;;;5069344;28;20366;-43
2021/10/08 02:10:24;;;;;;;17.85;10.25;;;8.20;99.90;;;;;;5075379;28;20498;-45
2021/10/08 02:12:51;;;;;;;18.40;9.23;;;8.20;99.90;;;;;;5072905;28;20284;-49
2021/10/08 02:15:18;;;;;;;14.27;9.35;;;8.10;99.90;;;;;;5081204;28;20210;-46
2021/10/08 02:17:46;;;;;;;14.00;10.43;;;8.10;99.90;;;;;;5073292;28;20199;-44
2021/10/08 02:20:13;;;;;;;15.95;9.90;;;8.20;99.90;;;;;;5070165;28;20475;-51
2021/10/08 02:22:42;;;;;;;10.70;9.20;;;8.00;99.90;;;;;;5066135;28;20250;-45
2021/10/08 02:25:09;;;;;;;12.68;9.35;;;8.10;99.90;;;;;;5063444;28;20515;-48
2021/10/08 02:27:36;;;;;;;16.55;10.15;;;8.20;99.90;;;;;;5079878;28;20194;-48
2021/10/08 02:30:04;;;;;;;10.73;9.73;;;8.20;99.90;;;;;;5065615;28;20195;-45
2021/10/08 02:32:31;;;;;;;25.38;10.95;;;8.10;99.90;;;;;;5075024;28;20246;-52
2021/10/08 02:34:59;;;;;;;13.77;9.63;;;8.00;99.90;;;;;;5076880;28;20433;-46
2021/10/08 02:37:26;;;;;;;17.95;9.60;;;7.90;99.90;;;;;;5065960;28;20199;-45
2021/10/08 02:39:53;;;;;;;15.18;10.80;;;7.90;99.90;;;;;;5063887;28;20199;-51
2021/10/08 02:42:20;;;;;;;16.23;11.30;;;7.90;99.90;;;;;;5062970;28;20265;-48
2021/10/08 02:44:47;;;;;;;16.75;10.00;;;8.00;99.90;;;;;;5071232;28;20408;-48
2021/10/08 02:47:14;;;;;;;14.32;10.55;;;8.00;99.90;;;;;;5067105;28;20233;-43
2021/10/08 02:49:42;;;;;;;11.20;9.15;;;7.90;99.90;;;;;;5060749;28;20200;-46
2021/10/08 02:52:09;;;;;;;14.38;9.70;;;7.90;99.90;;;;;;5062559;28;20233;-44
2021/10/08 02:54:56;;;;;;;18.58;10.32;;;7.80;99.90;;;;;;5061418;28;20200;-45
2021/10/08 02:57:23;;;;;;;12.57;10.23;;;7.80;99.90;;;;;;5061111;28;20203;-45
2021/10/08 02:59:52;;;;;;;13.05;9.05;;;7.80;99.90;;;;;;5079465;28;20270;-44
2021/10/08 03:02:19;;;;;;;13.30;9.20;;;7.70;99.90;;;;;;5081056;28;20513;-46
2021/10/08 03:04:46;;;;;;;15.35;10.15;;;7.60;99.90;;;;;;5066752;28;20432;-44
2021/10/08 03:07:13;;;;;;;14.27;10.65;;;7.70;99.90;;;;;;5065760;28;20200;-46
2021/10/08 03:09:41;;;;;;;19.70;11.05;;;7.60;99.90;;;;;;5079803;28;20195;-50
2021/10/08 03:12:08;;;;;;;17.73;10.05;;;7.60;99.90;;;;;;5066978;28;20599;-45
2021/10/08 03:14:35;;;;;;;13.35;9.07;;;7.60;99.90;;;;;;5080704;28;20202;-54
2021/10/08 03:17:02;;;;;;;16.08;11.18;;;7.50;99.90;;;;;;5066721;28;20249;-47
2021/10/08 03:19:30;;;;;;;14.45;9.88;;;7.40;99.90;;;;;;5071445;28;20203;-52
2021/10/08 03:21:57;;;;;;;11.63;9.45;;;7.50;99.90;;;;;;5069476;28;20210;-51
2021/10/08 03:24:24;;;;;;;12.88;10.57;;;7.50;99.90;;;;;;5072567;28;20509;-49
2021/10/08 03:26:51;;;;;;;13.57;10.13;;;7.60;99.90;;;;;;5078466;28;20203;-44
2021/10/08 03:29:18;;;;;;;17.52;10.80;;;7.50;99.90;;;;;;5065611;28;20263;-45
2021/10/08 03:31:46;;;;;;;15.52;10.98;;;7.50;99.90;;;;;;5074103;28;20237;-54
2021/10/08 03:34:13;;;;;;;12.50;10.02;;;7.50;99.90;;;;;;5065057;28;20513;-48
2021/10/08 03:36:54;;;;;;;13.73;9.70;;;7.50;99.90;;;;;;5071120;28;20199;-50
2021/10/08 03:39:28;;;;;;;15.75;11.32;;;7.50;99.90;;;;;;5063175;28;20371;-46
2021/10/08 03:41:55;;;;;;;12.25;9.88;;;7.20;99.90;;;;;;5068122;28;20269;-45
2021/10/08 03:44:23;;;;;;;10.05;9.02;;;7.30;99.90;;;;;;5075276;28;20194;-44
2021/10/08 03:46:51;;;;;;;13.20;10.10;;;7.30;99.90;;;;;;5073651;28;20207;-51
2021/10/08 03:49:22;;;;;;;18.65;12.45;;;7.20;99.90;;;;;;5072972;28;20208;-50
2021/10/08 03:51:52;;;;;;;10.40;8.43;;;7.30;99.90;;;;;;5076295;28;20471;-44
2021/10/08 03:54:21;;;;;;;12.75;9.40;;;7.20;99.90;;;;;;5063579;28;20250;-52
2021/10/08 03:56:49;;;;;;;23.23;10.82;;;7.10;99.90;;;;;;5075138;28;20211;-46
2021/10/08 03:59:16;;;;;;;15.00;8.90;;;7.10;99.90;;;;;;5075156;28;20272;-46
2021/10/08 04:01:44;;;;;;;14.60;10.48;;;7.10;99.90;;;;;;5071894;28;20227;-45
2021/10/08 04:04:11;;;;;;;16.35;10.63;;;7.10;99.90;;;;;;5081656;28;20482;-50
2021/10/08 04:06:39;;;;;;;13.68;9.77;;;7.10;99.90;;;;;;5078259;28;20203;-53
2021/10/08 04:09:07;;;;;;;16.45;9.23;;;7.00;99.90;;;;;;5081863;28;20199;-52
2021/10/08 04:11:35;;;;;;;17.85;10.00;;;7.10;99.90;;;;;;5068696;28;20196;-46
2021/10/08 04:14:03;;;;;;;14.32;10.70;;;7.10;99.90;;;;;;5072203;28;20223;-50
2021/10/08 04:16:30;;;;;;;13.15;10.27;;;6.90;99.90;;;;;;5063191;28;20196;-50
2021/10/08 04:18:57;;;;;;;13.55;8.60;;;7.00;99.90;;;;;;5065436;28;20222;-46
2021/10/08 04:21:25;;;;;;;11.05;9.18;;;7.10;99.90;;;;;;5063650;28;20233;-50
2021/10/08 04:23:52;;;;;;;18.15;11.02;;;7.10;99.90;;;;;;5081534;28;20464;-47
2021/10/08 04:26:19;;;;;;;12.75;8.98;;;7.10;99.90;;;;;;5082187;28;20195;-47
2021/10/08 04:28:46;;;;;;;19.95;11.63;;;7.20;99.90;;;;;;5079906;28;20258;-50
2021/10/08 04:31:13;;;;;;;11.15;9.60;;;7.20;99.90;;;;;;5070570;28;20426;-47
2021/10/08 04:33:40;;;;;;;15.88;8.88;;;7.10;99.90;;;;;;5071381;28;20306;-50
2021/10/08 04:36:07;;;;;;;18.85;10.88;;;7.10;99.90;;;;;;5071458;28;20203;-44
2021/10/08 04:38:34;;;;;;;12.73;9.70;;;7.00;99.90;;;;;;5068532;28;20203;-48
2021/10/08 04:41:01;;;;;;;18.15;10.63;;;7.00;99.90;;;;;;5068383;28;20287;-50
2021/10/08 04:43:29;;;;;;;14.82;10.45;;;7.00;99.90;;;;;;5082013;28;20253;-50
2021/10/08 04:45:58;;;;;;;14.05;9.95;;;6.90;99.90;;;;;;5080990;28;20195;-44
2021/10/08 04:48:26;;;;;;;15.15;9.82;;;6.80;99.90;;;;;;5079027;28;20497;-45
2021/10/08 04:50:55;;;;;;;11.90;8.98;;;6.70;99.90;;;;;;5069035;28;20245;-46
2021/10/08 04:53:24;;;;;;;15.52;10.68;;;6.70;99.90;;;;;;5080145;28;20262;-47
2021/10/08 04:55:51;;;;;;;11.13;9.30;;;6.70;99.90;;;;;;5077977;28;20261;-55
2021/10/08 04:58:20;;;;;;;15.90;9.95;;;6.70;99.90;;;;;;5068054;28;20447;-53
2021/10/08 05:00:47;;;;;;;14.60;10.45;;;6.80;99.90;;;;;;5077409;28;20504;-44
2021/10/08 05:03:19;;;;;;;11.52;9.25;;;6.80;99.90;;;;;;5078836;28;20294;-47
2021/10/08 05:05:50;;;;;;;15.63;9.45;;;6.70;99.90;;;;;;5065849;28;20194;-44
2021/10/08 05:08:19;;;;;;;16.58;9.20;;;6.70;99.90;;;;;;5078854;28;20202;-45
2021/10/08 05:10:46;;;;;;;15.15;9.73;;;6.80;99.90;;;;;;5072414;28;20195;-47
2021/10/08 05:13:14;;;;;;;15.07;9.80;;;6.80;99.90;;;;;;5068858;28;20480;-47
2021/10/08 05:15:41;;;;;;;18.70;11.00;;;6.80;99.90;;;;;;5072480;28;20523;-48
2021/10/08 05:18:08;;;;;;;10.98;9.52;;;6.90;99.90;;;;;;5067674;28;20442;-46
2021/10/08 05:20:35;;;;;;;14.02;9.55;;;6.90;99.90;;;;;;5073582;28;20192;-54
2021/10/08 05:23:03;;;;;;;15.02;11.52;;;6.80;99.90;;;;;;5073327;28;20244;-48
2021/10/08 05:25:30;;;;;;;15.93;11.00;;;6.90;99.90;;;;;;5073926;28;20249;-47
2021/10/08 05:27:57;;;;;;;16.27;10.25;;;6.90;99.90;;;;;;5067534;28;20217;-49
2021/10/08 05:30:25;;;;;;;11.20;9.40;;;7.00;99.90;;;;;;5071120;28;20202;-46
2021/10/08 05:32:53;;;;;;;12.77;9.55;;;7.00;99.90;;;;;;5067378;28;20241;-45
2021/10/08 05:35:19;;;;;;;15.15;9.68;;;7.10;99.90;;;;;;5078963;28;20252;-49
2021/10/08 05:37:46;;;;;;;13.13;10.98;;;7.10;99.90;;;;;;5081677;28;20237;-44
2021/10/08 05:40:14;;;;;;;15.73;10.55;;;7.00;99.90;;;;;;5086794;28;20210;-45
2021/10/08 05:42:41;;;;;;;14.35;10.77;;;7.00;99.90;;;;;;5080566;28;20230;-51
2021/10/08 05:45:08;;;;;;;12.60;9.70;;;6.90;99.90;;;;;;5085565;28;20664;-50
2021/10/08 05:47:35;;;;;;;21.73;12.00;;;6.80;99.90;;;;;;5077786;28;20196;-51
2021/10/08 05:50:04;;;;;;;18.67;11.82;;;6.80;99.90;;;;;;5091435;28;20217;-51
2021/10/08 05:52:31;;;;;;;16.02;11.55;;;6.80;99.90;;;;;;5087688;28;20218;-51
2021/10/08 05:54:59;;;;;;;12.07;10.05;;;6.80;99.90;;;;;;5087338;28;20517;-42
2021/10/08 05:57:26;;;;;;;11.68;9.45;;;6.80;99.90;;;;;;5089143;28;20198;-45
2021/10/08 05:59:54;;;;;;;15.13;10.90;;;6.90;99.90;;;;;;5082081;28;20214;-49
2021/10/08 06:02:21;;;;;;;14.55;10.18;;;6.90;99.90;;;;;;5091945;28;20445;-44
2021/10/08 06:04:48;;;;;;;14.05;9.85;;;6.80;99.90;;;;;;5093773;28;20202;-44
2021/10/08 06:07:15;;;;;;;11.57;10.35;;;7.10;99.90;;;;;;5095415;28;20607;-44
2021/10/08 06:09:45;;;;;;;11.80;9.30;;;7.40;99.90;;;;;;5085345;28;20255;-47
2021/10/08 06:12:14;;;;;;;16.30;11.30;;;7.70;99.90;;;;;;5093740;28;20237;-47
2021/10/08 06:14:42;;;;;;;16.48;9.30;;;7.80;99.90;;;;;;5085913;28;20202;-52
2021/10/08 06:17:09;;;;;;;18.25;10.15;;;7.90;99.90;;;;;;5089760;28;20218;-51
2021/10/08 06:19:36;;;;;;;12.73;9.20;;;8.30;99.90;;;;;;5094003;28;20244;-48
2021/10/08 06:22:03;;;;;;;17.77;8.68;;;8.50;99.90;;;;;;5096160;28;20517;-48
2021/10/08 06:24:31;;;;;;;16.35;10.50;;;8.80;99.90;;;;;;5089608;28;20255;-46
2021/10/08 06:26:58;;;;;;;11.82;9.40;;;8.80;99.90;;;;;;5087163;28;20507;-50
2021/10/08 06:29:25;;;;;;;12.05;8.80;;;8.90;99.90;;;;;;5088657;28;20194;-44
2021/10/08 06:31:52;;;;;;;16.45;9.40;;;8.80;99.90;;;;;;5090160;28;20255;-47
2021/10/08 06:34:20;;;;;;;16.35;9.82;;;8.60;99.90;;;;;;5080026;28;20232;-49
2021/10/08 06:36:47;;;;;;;16.73;11.27;;;8.50;99.90;;;;;;5087424;28;20199;-41
2021/10/08 06:39:14;;;;;;;13.30;9.43;;;8.50;99.90;;;;;;5093443;28;20546;-49
2021/10/08 06:41:42;;;;;;;11.30;10.00;;;8.40;99.90;;;;;;5091025;28;20198;-43
2021/10/08 06:44:09;;;;;;;11.68;9.18;;;8.40;99.90;;;;;;5085851;28;20415;-50
2021/10/08 06:46:36;;;;;;;19.95;10.60;;;8.30;99.90;;;;;;5085959;28;20194;-52
2021/10/08 06:49:03;;;;;;;15.82;9.95;;;8.30;99.90;;;;;;5091160;28;20202;-43
2021/10/08 06:51:30;;;;;;;14.00;9.18;;;8.40;99.90;;;;;;5086042;28;20559;-47
2021/10/08 06:53:57;;;;;;;14.95;10.57;;;8.30;99.90;;;;;;5086518;28;20270;-44
2021/10/08 06:56:25;;;;;;;12.65;9.98;;;8.20;99.90;;;;;;5080301;28;20247;-45
2021/10/08 06:58:52;;;;;;;13.80;9.23;;;8.20;99.90;;;;;;5083511;28;20378;-46
2021/10/08 07:01:19;;;;;;;11.55;9.55;;;8.30;99.90;;;;;;5088143;28;20220;-44
2021/10/08 07:03:47;;;;;;;15.45;9.55;;;8.20;99.90;;;;;;5087969;28;20233;-49
2021/10/08 07:06:14;;;;;;;13.23;8.95;;;8.10;99.90;;;;;;5096150;28;20206;-45
2021/10/08 07:08:42;;;;;;;17.38;10.15;;;8.20;99.90;;;;;;5081110;28;20217;-47
2021/10/08 07:11:09;;;;;;;11.05;8.32;;;8.30;99.90;;;;;;5090248;28;20334;-44
2021/10/08 07:13:36;;;;;;;12.15;8.45;;;8.60;99.90;;;;;;5086261;28;20270;-47
2021/10/08 07:16:04;;;;;;;16.38;9.43;;;8.90;99.90;;;;;;5095695;28;20524;-48
2021/10/08 07:18:44;;;;;;;16.65;8.10;;;9.70;99.90;;;;;;5091693;28;20504;-46
2021/10/08 07:21:13;;;;;;;11.60;8.98;;;11.00;99.90;;;;;;5102087;28;20200;-46
2021/10/08 07:23:44;;;;;;;13.18;10.15;;;12.00;99.90;;;;;;5097237;28;20230;-50
2021/10/08 07:26:16;;;;;;;14.93;10.60;;;12.30;99.90;;;;;;5087710;28;20493;-50
2021/10/08 07:28:43;;;;;;;18.52;10.70;;;12.20;99.90;;;;;;5098082;28;20248;-50
2021/10/08 07:31:11;;;;;;;15.52;9.73;;;12.80;99.90;;;;;;5078402;28;20202;-49
2021/10/08 07:33:41;;;;;;;10.93;8.75;;;13.40;99.90;;;;;;5100348;28;20296;-49
2021/10/08 07:36:09;;;;;;;10.27;8.15;;;13.40;99.90;;;;;;5096023;28;20239;-49
2021/10/08 07:38:38;;;;;;;12.60;9.45;;;14.30;99.90;;;;;;5102186;28;20220;-51
2021/10/08 07:41:06;;;;;;;13.20;10.35;;;14.00;99.90;;;;;;5090626;28;20405;-54
2021/10/08 07:43:33;;;;;;;10.23;9.25;;;14.00;99.90;;;;;;5087122;28;20225;-46
2021/10/08 07:46:01;;;;;;;13.68;10.02;;;13.40;99.90;;;;;;5087448;28;20202;-45
2021/10/08 07:48:28;;;;;;;14.20;9.55;;;13.90;99.90;;;;;;5096538;28;20203;-55
2021/10/08 07:50:55;;;;;;;14.90;9.93;;;13.90;99.90;;;;;;5071740;28;20234;-51
2021/10/08 07:53:22;;;;;;;13.85;10.25;;;14.80;99.90;;;;;;5089419;28;20540;-53
2021/10/08 07:55:49;;;;;;;11.20;9.65;;;15.00;99.90;;;;;;5088630;28;20209;-43
2021/10/08 07:58:17;;;;;;;12.15;9.85;;;15.50;99.90;;;;;;5071802;28;20225;-51
2021/10/08 08:00:44;;;;;;;11.52;10.35;;;14.10;99.90;;;;;;5089108;28;20203;-47
2021/10/08 08:03:11;;;;;;;11.32;9.52;;;14.70;99.90;;;;;;5089743;28;20230;-48
2021/10/08 08:05:39;;;;;;;17.23;11.45;;;14.20;99.90;;;;;;5078834;28;20314;-48
2021/10/08 08:08:06;;;;;;;17.27;10.43;;;14.20;99.90;;;;;;5065969;28;20201;-49
2021/10/08 08:10:33;;;;;;;17.08;12.63;;;14.60;99.90;;;;;;5078656;28;20195;-43
2021/10/08 08:13:01;;;;;;;10.77;9.48;;;14.90;99.90;;;;;;5076396;28;20228;-49
2021/10/08 08:15:29;;;;;;;15.13;10.40;;;15.10;99.90;;;;;;5075283;28;20222;-46
2021/10/08 08:17:56;;;;;;;18.40;12.45;;;14.70;99.90;;;;;;5070725;28;20272;-48
2021/10/08 08:20:23;;;;;;;14.07;11.20;;;15.60;99.90;;;;;;5071919;28;20245;-44
2021/10/08 08:22:51;;;;;;;14.65;11.80;;;15.30;99.90;;;;;;5080948;28;20228;-48
2021/10/08 08:25:18;;;;;;;13.80;10.45;;;15.50;99.90;;;;;;5094110;28;20272;-45
2021/10/08 08:27:45;;;;;;;11.40;10.27;;;15.00;99.90;;;;;;5094993;28;20196;-50
2021/10/08 08:30:13;;;;;;;12.77;9.90;;;15.50;99.90;;;;;;5088488;28;20448;-47
2021/10/08 08:32:41;;;;;;;18.17;11.30;;;16.20;99.90;;;;;;5087083;28;20671;-48
2021/10/08 08:35:08;;;;;;;12.93;11.63;;;15.30;99.90;;;;;;5089088;28;20642;-47
2021/10/08 08:37:35;;;;;;;12.57;9.95;;;15.20;99.90;;;;;;5087230;28;20496;-44
2021/10/08 08:40:06;;;;;;;11.00;10.02;;;14.20;99.90;;;;;;5087905;28;20272;-45
2021/10/08 08:42:34;;;;;;;14.95;10.90;;;15.00;99.90;;;;;;5091084;28;20325;-44
2021/10/08 08:45:02;;;;;;;12.60;10.23;;;15.50;99.90;;;;;;5095333;28;20207;-42
2021/10/08 08:47:30;;;;;;;12.90;11.03;;;15.40;99.90;;;;;;5093722;28;20755;-46
2021/10/08 08:49:57;;;;;;;13.10;10.47;;;16.30;99.90;;;;;;5097488;28;20411;-46
2021/10/08 08:52:24;;;;;;;21.67;10.30;;;16.40;99.90;;;;;;5095086;28;20455;-49
2021/10/08 08:54:53;;;;;;;12.90;10.20;;;15.90;99.90;;;;;;5098123;28;20538;-47
2021/10/08 08:57:21;;;;;;;11.68;9.65;;;15.40;99.90;;;;;;5087787;28;20211;-44
2021/10/08 09:00:04;;;;;;;17.80;10.75;;;15.40;99.90;;;;;;5090131;28;20212;-46
2021/10/08 09:02:34;;;;;;;11.50;10.35;;;14.90;99.90;;;;;;5086312;28;20272;-47
2021/10/08 09:05:02;;;;;;;18.65;11.27;;;14.30;99.90;;;;;;5088650;28;20199;-47
2021/10/08 09:07:35;;;;;;;13.43;10.85;;;14.10;99.90;;;;;;5089189;28;20198;-46
2021/10/08 09:10:24;;;;;;;10.35;9.48;;;12.90;99.90;;;;;;5087589;28;20199;-50
2021/10/08 09:12:56;;;;;;;11.20;10.15;;;12.70;99.90;;;;;;5093415;28;20240;-48
2021/10/08 09:15:25;;;;;;;13.93;10.15;;;12.40;99.90;;;;;;5089016;28;20474;-47
2021/10/08 09:18:10;;;;;;;16.08;11.32;;;12.00;99.90;;;;;;5093755;28;20410;-46
2021/10/08 09:20:39;;;;;;;18.88;11.73;;;11.60;99.90;;;;;;5061367;28;20236;-45
2021/10/08 09:23:07;;;;;;;17.45;10.88;;;11.80;99.90;;;;;;5084064;28;20259;-48
2021/10/08 09:25:36;;;;;;;16.73;10.95;;;11.90;99.90;;;;;;5090916;28;20220;-45
2021/10/08 09:28:09;;;;;;;12.70;10.23;;;11.70;99.90;;;;;;5094670;28;20253;-46
2021/10/08 09:30:45;;;;;;;13.32;10.52;;;11.40;99.90;;;;;;5086633;28;20207;-51
2021/10/08 09:33:15;;;;;;;14.13;10.75;;;11.10;99.90;;;;;;5082538;28;20229;-49
2021/10/08 09:35:44;;;;;;;12.95;9.20;;;10.80;99.90;;;;;;5084588;28;20209;-51
2021/10/08 09:38:14;;;;;;;13.80;10.27;;;10.80;99.90;;;;;;5085947;28;20331;-44
2021/10/08 09:40:55;;;;;;;14.02;9.50;;;10.60;99.90;;;;;;5092588;28;20255;-51
2021/10/08 09:43:22;;;;;;;14.70;10.02;;;10.60;99.90;;;;;;5077310;28;20295;-53
2021/10/08 09:45:52;;;;;;;15.88;10.88;;;10.60;99.90;;;;;;5086899;28;20524;-45
2021/10/08 09:48:22;;;;;;;20.17;10.98;;;10.80;99.90;;;;;;5077800;28;20401;-45
2021/10/08 09:51:07;;;;;;;23.63;12.10;;;11.00;99.90;;;;;;5078030;28;20197;-46
2021/10/08 09:53:56;;;;;;;14.05;9.35;;;11.20;99.90;;;;;;5079344;28;20552;-47
2021/10/08 09:56:37;;;;;;;14.63;9.73;;;11.20;99.90;;;;;;5081380;28;20198;-50
2021/10/08 09:59:07;;;;;;;15.52;9.93;;;11.20;99.90;;;;;;5080103;28;20493;-47
2021/10/08 10:01:36;;;;;;;12.35;9.88;;;11.20;99.90;;;;;;5078231;28;20440;-48
2021/10/08 10:04:08;;;;;;;13.95;10.32;;;11.30;99.90;;;;;;5079733;28;20237;-46
2021/10/08 10:06:40;;;;;;;15.55;9.43;;;11.40;99.90;;;;;;5078848;28;20216;-45
2021/10/08 10:09:08;;;;;;;13.45;10.18;;;11.40;99.90;;;;;;5074386;28;20194;-45
2021/10/08 10:11:36;;;;;;;14.32;10.45;;;11.40;99.90;;;;;;5092098;28;20203;-46
2021/10/08 10:14:03;;;;;;;12.15;8.98;;;11.40;99.90;;;;;;5082878;28;20283;-52
2021/10/08 10:16:36;;;;;;;21.88;11.27;;;11.40;99.90;;;;;;5083002;28;20243;-52
2021/10/08 10:19:04;;;;;;;15.07;9.65;;;11.20;99.90;;;;;;5086351;28;20202;-49
2021/10/08 10:21:35;;;;;;;15.00;9.85;;;11.20;99.90;;;;;;5089776;28;20230;-52
2021/10/08 10:24:03;;;;;;;14.02;9.98;;;11.20;99.90;;;;;;5091880;28;20229;-49
2021/10/08 10:26:35;;;;;;;16.88;10.25;;;11.40;99.90;;;;;;5078067;28;20243;-49
2021/10/08 10:29:03;;;;;;;11.50;10.00;;;11.30;99.90;;;;;;5093465;28;20197;-46
2021/10/08 10:31:32;;;;;;;15.00;9.93;;;11.40;99.90;;;;;;5080231;28;20270;-51
2021/10/08 10:34:01;;;;;;;15.93;10.13;;;11.50;99.90;;;;;;5092879;28;20278;-44
2021/10/08 10:36:31;;;;;;;11.88;9.40;;;11.60;99.90;;;;;;5089052;28;20428;-47
2021/10/08 10:39:19;;;;;;;14.00;11.40;;;11.50;99.90;;;;;;5085753;28;20499;-45
2021/10/08 10:42:02;;;;;;;17.63;9.80;;;11.50;99.90;;;;;;5085200;28;20201;-46
2021/10/08 10:44:38;;;;;;;12.82;10.35;;;11.60;99.90;;;;;;5091942;28;20293;-44
2021/10/08 10:47:28;;;;;;;11.70;9.20;;;11.60;99.90;;;;;;5083287;28;20201;-46
2021/10/08 10:51:09;;;;;;;13.00;9.10;;;11.60;99.90;;;;;;5082153;28;20205;-43
2021/10/08 10:53:09;;;;;;;13.57;9.10;;;11.50;99.90;;;;;;5072539;28;20274;-42
2021/10/08 10:55:36;;;;;;;12.88;9.57;;;11.50;99.90;;;;;;5091192;28;20219;-44
2021/10/08 10:58:10;;;;;;;14.02;9.10;;;11.60;99.90;;;;;;5075813;28;20244;-49
2021/10/08 11:00:45;;;;;;;15.90;10.60;;;11.50;99.90;;;;;;5085669;28;20249;-43
2021/10/08 11:03:12;;;;;;;13.80;10.27;;;11.60;99.90;;;;;;5085034;28;20486;-48
2021/10/08 11:06:01;;;;;;;11.52;9.27;;;11.50;99.90;;;;;;5086685;28;20272;-43
2021/10/08 11:08:29;;;;;;;16.38;9.68;;;11.40;99.90;;;;;;5074081;28;20314;-47
2021/10/08 11:10:59;;;;;;;16.48;10.00;;;11.40;99.90;;;;;;5062398;28;20197;-45
2021/10/08 11:13:35;;;;;;;11.90;9.15;;;11.50;99.90;;;;;;5090261;28;20236;-42
2021/10/08 11:16:10;;;;;;;13.93;9.25;;;11.50;99.90;;;;;;5096025;28;20222;-45
2021/10/08 11:18:45;;;;;;;13.07;9.82;;;11.70;99.90;;;;;;5071357;28;20489;-45
2021/10/08 11:21:28;;;;;;;15.30;10.80;;;11.70;99.90;;;;;;5067876;28;20574;-49
2021/10/08 11:24:22;;;;;;;21.73;9.55;;;11.70;99.90;;;;;;5078865;28;20228;-49
2021/10/08 11:26:52;;;;;;;14.55;10.52;;;11.60;99.90;;;;;;5068716;28;20444;-44
2021/10/08 11:29:19;;;;;;;11.80;9.65;;;11.70;99.90;;;;;;5079903;28;20514;-48
2021/10/08 11:31:51;;;;;;;12.15;9.35;;;11.70;99.90;;;;;;5065212;28;20251;-47
2021/10/08 11:34:18;;;;;;;17.90;11.13;;;11.80;99.90;;;;;;5072122;28;20225;-47
2021/10/08 11:36:55;;;;;;;10.48;9.35;;;11.80;99.90;;;;;;5073207;28;20452;-47
2021/10/08 11:39:23;;;;;;;11.32;9.82;;;11.80;99.90;;;;;;5059729;28;20273;-44
2021/10/08 11:42:08;;;;;;;21.08;10.05;;;11.90;99.90;;;;;;5073178;28;20204;-46
2021/10/08 11:44:39;;;;;;;11.32;8.90;;;11.90;99.90;;;;;;5061588;28;20255;-47
2021/10/08 11:47:48;;;;;;;18.35;10.73;;;12.10;99.90;;;;;;5064152;28;20249;-50
2021/10/08 11:50:26;;;;;;;16.25;10.30;;;12.10;99.90;;;;;;5065844;28;20198;-47
2021/10/08 11:52:59;;;;;;;16.48;10.02;;;11.80;99.90;;;;;;5065007;28;20451;-51
2021/10/08 11:55:28;;;;;;;15.85;9.85;;;11.90;99.90;;;;;;5059929;28;20236;-46
2021/10/08 11:58:07;;;;;;;19.42;10.80;;;12.00;99.90;;;;;;5078313;28;20268;-46
2021/10/08 12:00:44;;;;;;;12.80;9.60;;;12.00;99.90;;;;;;5067350;28;20202;-46
2021/10/08 12:03:14;;;;;;;11.68;10.15;;;12.20;99.90;;;;;;5070645;28;20552;-47
2021/10/08 12:05:54;;;;;;;12.00;9.30;;;12.10;99.90;;;;;;5083025;28;20272;-47
2021/10/08 12:08:29;;;;;;;18.38;9.60;;;12.10;99.90;;;;;;5080323;28;20194;-53
2021/10/08 12:10:59;;;;;;;12.40;11.15;;;12.00;99.90;;;;;;5076084;28;20190;-43
2021/10/08 12:13:38;;;;;;;10.90;8.75;;;12.10;99.90;;;;;;5081801;28;20229;-47
2021/10/08 12:16:05;;;;;;;12.20;8.70;;;12.10;99.90;;;;;;5075302;28;20198;-45
2021/10/08 12:18:33;;;;;;;12.20;10.18;;;12.20;99.90;;;;;;5071992;28;20261;-45
2021/10/08 12:21:28;;;;;;;12.27;9.32;;;12.20;99.90;;;;;;5082205;28;20206;-49
2021/10/08 12:24:23;;;;;;;27.55;10.43;;;12.20;99.90;;;;;;5079803;28;20244;-44
2021/10/08 12:26:55;;;;;;;10.13;8.70;;;12.20;99.90;;;;;;5069918;28;20562;-47
2021/10/08 12:29:24;;;;;;;16.85;10.30;;;12.20;99.90;;;;;;5078764;28;20481;-46
2021/10/08 12:31:59;;;;;;;15.30;10.48;;;12.30;99.90;;;;;;5073879;28;20207;-49
2021/10/08 12:34:46;;;;;;;13.20;9.32;;;12.50;99.90;;;;;;5062782;28;20213;-45
2021/10/08 12:37:19;;;;;;;14.13;10.75;;;12.40;99.90;;;;;;5072482;28;20240;-47
2021/10/08 12:40:12;;;;;;;10.95;9.25;;;12.40;99.90;;;;;;5077472;28;20260;-52
2021/10/08 12:45:46;;;;;;;16.13;9.95;;;12.40;99.90;;;;;;5087597;28;20230;-41
2021/10/08 12:48:18;;;;;;;13.23;9.57;;;12.30;99.90;;;;;;5084061;28;20206;-45
2021/10/08 12:50:46;;;;;;;11.93;9.25;;;12.30;99.90;;;;;;5085502;28;20197;-46
2021/10/08 12:53:17;;;;;;;13.55;9.88;;;12.40;99.90;;;;;;5085487;28;20543;-47